sensor_id;sensor_type;location;lat;lon;timestamp;P1;durP1;ratioP1;P2;durP2;ratioP2
2111;SDS011;1062;52.538;13.400;2023-01-08T00:01:23;4.67;;;4.00;;
2111;SDS011;1062;52.538;13.400;2023-01-08T00:03:49;4.27;;;3.67;;
2111;SDS011;1062;52.538;13.400;2023-01-08T00:06:15;4.37;;;3.50;;
2111;SDS011;1062;52.538;13.400;2023-01-08T00:08:43;4.30;;;3.80;;
2111;SDS011;1062;52.538;13.400;2023-01-08T00:11:09;6.90;;;4.77;;
2111;SDS011;1062;52.538;13.400;2023-01-08T00:13:35;5.00;;;3.60;;
2111;SDS011;1062;52.538;13.400;2023-01-08T00:16:02;4.50;;;3.87;;
2111;SDS011;1062;52.538;13.400;2023-01-08T00:18:33;4.17;;;3.87;;
2111;SDS011;1062;52.538;13.400;2023-01-08T00:20:58;5.93;;;4.80;;
2111;SDS011;1062;52.538;13.400;2023-01-08T00:23:24;5.77;;;4.70;;
2111;SDS011;1062;52.538;13.400;2023-01-08T00:25:50;5.47;;;4.03;;
2111;SDS011;1062;52.538;13.400;2023-01-08T00:28:16;4.73;;;4.20;;
2111;SDS011;1062;52.538;13.400;2023-01-08T00:30:42;4.77;;;4.27;;
2111;SDS011;1062;52.538;13.400;2023-01-08T00:33:07;4.97;;;4.17;;
2111;SDS011;1062;52.538;13.400;2023-01-08T00:35:34;5.13;;;3.90;;
2111;SDS011;1062;52.538;13.400;2023-01-08T00:38:02;6.53;;;4.03;;
2111;SDS011;1062;52.538;13.400;2023-01-08T00:40:27;4.20;;;3.43;;
2111;SDS011;1062;52.538;13.400;2023-01-08T00:42:53;4.60;;;4.17;;
2111;SDS011;1062;52.538;13.400;2023-01-08T00:45:19;4.30;;;3.80;;
2111;SDS011;1062;52.538;13.400;2023-01-08T00:47:44;6.83;;;5.23;;
2111;SDS011;1062;52.538;13.400;2023-01-08T00:50:10;5.67;;;3.70;;
2111;SDS011;1062;52.538;13.400;2023-01-08T00:52:35;6.97;;;4.20;;
2111;SDS011;1062;52.538;13.400;2023-01-08T00:55:01;5.70;;;4.53;;
2111;SDS011;1062;52.538;13.400;2023-01-08T00:57:31;4.60;;;4.20;;
2111;SDS011;1062;52.538;13.400;2023-01-08T00:59:58;4.20;;;3.80;;
2111;SDS011;1062;52.538;13.400;2023-01-08T01:02:23;7.27;;;4.30;;
2111;SDS011;1062;52.538;13.400;2023-01-08T01:04:49;5.77;;;3.60;;
2111;SDS011;1062;52.538;13.400;2023-01-08T01:07:15;5.17;;;4.67;;
2111;SDS011;1062;52.538;13.400;2023-01-08T01:09:40;5.20;;;4.40;;
2111;SDS011;1062;52.538;13.400;2023-01-08T01:12:06;4.60;;;4.20;;
2111;SDS011;1062;52.538;13.400;2023-01-08T01:14:32;5.00;;;3.83;;
2111;SDS011;1062;52.538;13.400;2023-01-08T01:16:58;5.17;;;4.43;;
2111;SDS011;1062;52.538;13.400;2023-01-08T01:19:23;4.73;;;4.30;;
2111;SDS011;1062;52.538;13.400;2023-01-08T01:21:49;5.30;;;4.80;;
2111;SDS011;1062;52.538;13.400;2023-01-08T01:24:14;6.40;;;4.87;;
2111;SDS011;1062;52.538;13.400;2023-01-08T01:26:40;6.17;;;5.03;;
2111;SDS011;1062;52.538;13.400;2023-01-08T01:29:06;5.40;;;4.27;;
2111;SDS011;1062;52.538;13.400;2023-01-08T01:31:32;6.87;;;4.90;;
2111;SDS011;1062;52.538;13.400;2023-01-08T01:33:58;6.80;;;5.20;;
2111;SDS011;1062;52.538;13.400;2023-01-08T01:36:24;4.80;;;4.37;;
2111;SDS011;1062;52.538;13.400;2023-01-08T01:38:52;6.40;;;4.83;;
2111;SDS011;1062;52.538;13.400;2023-01-08T01:49:53;5.57;;;5.00;;
2111;SDS011;1062;52.538;13.400;2023-01-08T01:52:29;5.50;;;5.00;;
2111;SDS011;1062;52.538;13.400;2023-01-08T01:54:59;5.23;;;4.33;;
2111;SDS011;1062;52.538;13.400;2023-01-08T01:57:27;6.27;;;5.13;;
2111;SDS011;1062;52.538;13.400;2023-01-08T01:59:54;5.50;;;4.60;;
2111;SDS011;1062;52.538;13.400;2023-01-08T02:02:22;5.53;;;4.70;;
2111;SDS011;1062;52.538;13.400;2023-01-08T02:04:47;5.07;;;4.57;;
2111;SDS011;1062;52.538;13.400;2023-01-08T02:13:07;5.00;;;4.50;;
2111;SDS011;1062;52.538;13.400;2023-01-08T02:16:00;4.73;;;4.30;;
2111;SDS011;1062;52.538;13.400;2023-01-08T02:18:46;7.47;;;5.77;;
2111;SDS011;1062;52.538;13.400;2023-01-08T02:24:02;6.57;;;5.10;;
2111;SDS011;1062;52.538;13.400;2023-01-08T02:26:37;7.20;;;4.90;;
2111;SDS011;1062;52.538;13.400;2023-01-08T02:31:33;6.27;;;4.90;;
2111;SDS011;1062;52.538;13.400;2023-01-08T02:34:00;7.17;;;5.07;;
2111;SDS011;1062;52.538;13.400;2023-01-08T02:36:39;6.80;;;6.10;;
2111;SDS011;1062;52.538;13.400;2023-01-08T02:46:59;9.50;;;6.23;;
2111;SDS011;1062;52.538;13.400;2023-01-08T02:49:28;7.00;;;5.80;;
2111;SDS011;1062;52.538;13.400;2023-01-08T02:51:58;5.70;;;5.20;;
2111;SDS011;1062;52.538;13.400;2023-01-08T02:54:28;7.37;;;5.80;;
2111;SDS011;1062;52.538;13.400;2023-01-08T02:57:07;6.90;;;5.60;;
2111;SDS011;1062;52.538;13.400;2023-01-08T02:59:38;7.50;;;5.73;;
2111;SDS011;1062;52.538;13.400;2023-01-08T03:02:05;7.43;;;5.90;;
2111;SDS011;1062;52.538;13.400;2023-01-08T03:04:33;6.33;;;5.73;;
2111;SDS011;1062;52.538;13.400;2023-01-08T03:07:03;7.47;;;5.90;;
2111;SDS011;1062;52.538;13.400;2023-01-08T03:09:29;6.50;;;5.90;;
2111;SDS011;1062;52.538;13.400;2023-01-08T03:12:01;7.63;;;6.00;;
2111;SDS011;1062;52.538;13.400;2023-01-08T03:14:38;8.10;;;6.13;;
2111;SDS011;1062;52.538;13.400;2023-01-08T03:20:16;7.20;;;6.53;;
2111;SDS011;1062;52.538;13.400;2023-01-08T03:22:46;6.73;;;6.03;;
2111;SDS011;1062;52.538;13.400;2023-01-08T03:25:16;9.40;;;6.83;;
2111;SDS011;1062;52.538;13.400;2023-01-08T03:27:44;7.63;;;6.83;;
2111;SDS011;1062;52.538;13.400;2023-01-08T03:30:13;7.07;;;6.37;;
2111;SDS011;1062;52.538;13.400;2023-01-08T03:32:41;6.93;;;5.20;;
2111;SDS011;1062;52.538;13.400;2023-01-08T03:35:09;8.37;;;6.13;;
2111;SDS011;1062;52.538;13.400;2023-01-08T03:37:40;6.90;;;6.03;;
2111;SDS011;1062;52.538;13.400;2023-01-08T03:40:17;7.17;;;5.67;;
2111;SDS011;1062;52.538;13.400;2023-01-08T03:42:46;7.10;;;5.37;;
2111;SDS011;1062;52.538;13.400;2023-01-08T03:45:12;7.90;;;6.50;;
2111;SDS011;1062;52.538;13.400;2023-01-08T03:47:38;8.17;;;7.37;;
2111;SDS011;1062;52.538;13.400;2023-01-08T03:50:06;6.70;;;6.13;;
2111;SDS011;1062;52.538;13.400;2023-01-08T03:52:35;8.57;;;5.77;;
2111;SDS011;1062;52.538;13.400;2023-01-08T03:55:00;7.87;;;5.93;;
2111;SDS011;1062;52.538;13.400;2023-01-08T03:57:26;7.77;;;6.63;;
2111;SDS011;1062;52.538;13.400;2023-01-08T03:59:52;7.90;;;7.00;;
2111;SDS011;1062;52.538;13.400;2023-01-08T04:02:18;8.23;;;6.63;;
2111;SDS011;1062;52.538;13.400;2023-01-08T04:04:43;8.40;;;5.90;;
2111;SDS011;1062;52.538;13.400;2023-01-08T04:07:09;6.70;;;6.10;;
2111;SDS011;1062;52.538;13.400;2023-01-08T04:09:35;7.73;;;6.30;;
2111;SDS011;1062;52.538;13.400;2023-01-08T04:12:01;7.67;;;6.23;;
2111;SDS011;1062;52.538;13.400;2023-01-08T04:14:27;8.07;;;5.77;;
2111;SDS011;1062;52.538;13.400;2023-01-08T04:16:53;8.63;;;6.67;;
2111;SDS011;1062;52.538;13.400;2023-01-08T04:19:18;6.83;;;6.20;;
2111;SDS011;1062;52.538;13.400;2023-01-08T04:21:44;7.97;;;5.97;;
2111;SDS011;1062;52.538;13.400;2023-01-08T04:24:10;8.10;;;6.87;;
2111;SDS011;1062;52.538;13.400;2023-01-08T04:26:36;8.23;;;6.60;;
2111;SDS011;1062;52.538;13.400;2023-01-08T04:29:02;14.17;;;6.97;;
2111;SDS011;1062;52.538;13.400;2023-01-08T04:31:28;7.63;;;6.13;;
2111;SDS011;1062;52.538;13.400;2023-01-08T04:33:54;8.63;;;6.63;;
2111;SDS011;1062;52.538;13.400;2023-01-08T04:36:20;7.47;;;6.67;;
2111;SDS011;1062;52.538;13.400;2023-01-08T04:38:45;6.60;;;5.67;;
2111;SDS011;1062;52.538;13.400;2023-01-08T04:41:11;8.43;;;5.73;;
2111;SDS011;1062;52.538;13.400;2023-01-08T04:43:37;6.80;;;6.20;;
2111;SDS011;1062;52.538;13.400;2023-01-08T04:46:03;7.30;;;5.80;;
2111;SDS011;1062;52.538;13.400;2023-01-08T04:48:31;9.33;;;7.27;;
2111;SDS011;1062;52.538;13.400;2023-01-08T04:50:57;8.70;;;7.03;;
2111;SDS011;1062;52.538;13.400;2023-01-08T04:53:24;7.23;;;6.40;;
2111;SDS011;1062;52.538;13.400;2023-01-08T04:55:50;6.57;;;5.50;;
2111;SDS011;1062;52.538;13.400;2023-01-08T04:58:16;14.80;;;8.47;;
2111;SDS011;1062;52.538;13.400;2023-01-08T05:00:41;10.47;;;6.50;;
2111;SDS011;1062;52.538;13.400;2023-01-08T05:03:07;6.70;;;6.10;;
2111;SDS011;1062;52.538;13.400;2023-01-08T05:05:33;7.60;;;6.80;;
2111;SDS011;1062;52.538;13.400;2023-01-08T05:07:58;7.83;;;7.07;;
2111;SDS011;1062;52.538;13.400;2023-01-08T05:10:24;10.20;;;6.17;;
2111;SDS011;1062;52.538;13.400;2023-01-08T05:12:50;6.80;;;6.00;;
2111;SDS011;1062;52.538;13.400;2023-01-08T05:15:15;6.73;;;6.03;;
2111;SDS011;1062;52.538;13.400;2023-01-08T05:17:41;7.07;;;6.13;;
2111;SDS011;1062;52.538;13.400;2023-01-08T05:20:07;9.73;;;5.47;;
2111;SDS011;1062;52.538;13.400;2023-01-08T05:22:33;10.90;;;7.07;;
2111;SDS011;1062;52.538;13.400;2023-01-08T05:24:59;6.50;;;5.90;;
2111;SDS011;1062;52.538;13.400;2023-01-08T05:27:24;8.37;;;6.50;;
2111;SDS011;1062;52.538;13.400;2023-01-08T05:29:51;7.70;;;6.10;;
2111;SDS011;1062;52.538;13.400;2023-01-08T05:32:17;8.33;;;6.67;;
2111;SDS011;1062;52.538;13.400;2023-01-08T05:34:43;7.00;;;6.40;;
2111;SDS011;1062;52.538;13.400;2023-01-08T05:37:09;8.23;;;6.23;;
2111;SDS011;1062;52.538;13.400;2023-01-08T05:39:36;7.50;;;5.87;;
2111;SDS011;1062;52.538;13.400;2023-01-08T05:42:02;7.10;;;5.80;;
2111;SDS011;1062;52.538;13.400;2023-01-08T05:44:28;6.67;;;5.67;;
2111;SDS011;1062;52.538;13.400;2023-01-08T05:46:54;7.80;;;6.50;;
2111;SDS011;1062;52.538;13.400;2023-01-08T05:49:20;6.33;;;5.27;;
2111;SDS011;1062;52.538;13.400;2023-01-08T05:51:47;7.10;;;5.60;;
2111;SDS011;1062;52.538;13.400;2023-01-08T05:54:13;6.33;;;5.67;;
2111;SDS011;1062;52.538;13.400;2023-01-08T05:56:39;7.00;;;6.30;;
2111;SDS011;1062;52.538;13.400;2023-01-08T05:59:09;8.17;;;6.87;;
2111;SDS011;1062;52.538;13.400;2023-01-08T06:01:35;5.77;;;5.17;;
2111;SDS011;1062;52.538;13.400;2023-01-08T06:04:01;6.27;;;5.63;;
2111;SDS011;1062;52.538;13.400;2023-01-08T06:06:26;6.33;;;5.77;;
2111;SDS011;1062;52.538;13.400;2023-01-08T06:08:52;11.70;;;6.53;;
2111;SDS011;1062;52.538;13.400;2023-01-08T06:11:17;6.07;;;5.17;;
2111;SDS011;1062;52.538;13.400;2023-01-08T06:13:43;6.93;;;5.13;;
2111;SDS011;1062;52.538;13.400;2023-01-08T06:16:09;6.13;;;5.53;;
2111;SDS011;1062;52.538;13.400;2023-01-08T06:18:34;7.23;;;6.27;;
2111;SDS011;1062;52.538;13.400;2023-01-08T06:21:00;5.67;;;5.07;;
2111;SDS011;1062;52.538;13.400;2023-01-08T06:23:28;7.27;;;6.57;;
2111;SDS011;1062;52.538;13.400;2023-01-08T06:25:54;6.17;;;5.47;;
2111;SDS011;1062;52.538;13.400;2023-01-08T06:28:21;5.80;;;5.27;;
2111;SDS011;1062;52.538;13.400;2023-01-08T06:30:47;5.03;;;4.63;;
2111;SDS011;1062;52.538;13.400;2023-01-08T06:33:13;5.53;;;4.90;;
2111;SDS011;1062;52.538;13.400;2023-01-08T06:35:39;6.63;;;5.70;;
2111;SDS011;1062;52.538;13.400;2023-01-08T06:38:04;5.70;;;5.17;;
2111;SDS011;1062;52.538;13.400;2023-01-08T06:40:30;6.83;;;5.77;;
2111;SDS011;1062;52.538;13.400;2023-01-08T06:42:59;8.50;;;5.47;;
2111;SDS011;1062;52.538;13.400;2023-01-08T06:45:29;5.37;;;4.73;;
2111;SDS011;1062;52.538;13.400;2023-01-08T06:47:59;7.27;;;5.53;;
2111;SDS011;1062;52.538;13.400;2023-01-08T06:50:29;5.50;;;4.57;;
2111;SDS011;1062;52.538;13.400;2023-01-08T06:52:55;7.13;;;6.20;;
2111;SDS011;1062;52.538;13.400;2023-01-08T06:55:21;6.07;;;5.47;;
2111;SDS011;1062;52.538;13.400;2023-01-08T06:57:51;5.37;;;4.83;;
2111;SDS011;1062;52.538;13.400;2023-01-08T07:00:18;7.30;;;5.07;;
2111;SDS011;1062;52.538;13.400;2023-01-08T07:02:43;7.20;;;4.80;;
2111;SDS011;1062;52.538;13.400;2023-01-08T07:05:09;5.93;;;5.30;;
2111;SDS011;1062;52.538;13.400;2023-01-08T07:07:34;6.97;;;4.70;;
2111;SDS011;1062;52.538;13.400;2023-01-08T07:10:00;4.87;;;4.40;;
2111;SDS011;1062;52.538;13.400;2023-01-08T07:12:26;6.13;;;4.70;;
2111;SDS011;1062;52.538;13.400;2023-01-08T07:14:51;5.53;;;4.93;;
2111;SDS011;1062;52.538;13.400;2023-01-08T07:17:17;6.67;;;5.13;;
2111;SDS011;1062;52.538;13.400;2023-01-08T07:19:42;5.50;;;5.00;;
2111;SDS011;1062;52.538;13.400;2023-01-08T07:22:08;6.90;;;4.87;;
2111;SDS011;1062;52.538;13.400;2023-01-08T07:24:33;4.83;;;4.43;;
2111;SDS011;1062;52.538;13.400;2023-01-08T07:26:59;6.53;;;5.37;;
2111;SDS011;1062;52.538;13.400;2023-01-08T07:29:25;18.80;;;13.03;;
2111;SDS011;1062;52.538;13.400;2023-01-08T07:31:51;5.60;;;5.00;;
2111;SDS011;1062;52.538;13.400;2023-01-08T07:34:17;6.27;;;5.00;;
2111;SDS011;1062;52.538;13.400;2023-01-08T07:36:42;5.40;;;4.90;;
2111;SDS011;1062;52.538;13.400;2023-01-08T07:39:08;4.90;;;4.43;;
2111;SDS011;1062;52.538;13.400;2023-01-08T07:41:34;5.80;;;4.50;;
2111;SDS011;1062;52.538;13.400;2023-01-08T07:43:59;5.60;;;4.70;;
2111;SDS011;1062;52.538;13.400;2023-01-08T07:46:25;7.20;;;4.10;;
2111;SDS011;1062;52.538;13.400;2023-01-08T07:48:50;4.83;;;4.30;;
2111;SDS011;1062;52.538;13.400;2023-01-08T07:51:16;5.37;;;4.87;;
2111;SDS011;1062;52.538;13.400;2023-01-08T07:53:42;6.73;;;5.10;;
2111;SDS011;1062;52.538;13.400;2023-01-08T07:56:08;6.00;;;5.17;;
2111;SDS011;1062;52.538;13.400;2023-01-08T07:58:34;5.47;;;4.40;;
2111;SDS011;1062;52.538;13.400;2023-01-08T08:01:00;4.87;;;4.47;;
2111;SDS011;1062;52.538;13.400;2023-01-08T08:03:27;6.17;;;4.53;;
2111;SDS011;1062;52.538;13.400;2023-01-08T08:05:52;4.47;;;4.07;;
2111;SDS011;1062;52.538;13.400;2023-01-08T08:08:18;8.37;;;4.40;;
2111;SDS011;1062;52.538;13.400;2023-01-08T08:10:44;5.60;;;5.07;;
2111;SDS011;1062;52.538;13.400;2023-01-08T08:13:10;5.20;;;4.70;;
2111;SDS011;1062;52.538;13.400;2023-01-08T08:15:36;5.10;;;3.90;;
2111;SDS011;1062;52.538;13.400;2023-01-08T08:18:04;4.33;;;3.93;;
2111;SDS011;1062;52.538;13.400;2023-01-08T08:20:30;4.77;;;4.17;;
2111;SDS011;1062;52.538;13.400;2023-01-08T08:23:00;6.63;;;4.10;;
2111;SDS011;1062;52.538;13.400;2023-01-08T08:25:26;5.20;;;4.70;;
2111;SDS011;1062;52.538;13.400;2023-01-08T08:27:54;7.10;;;5.03;;
2111;SDS011;1062;52.538;13.400;2023-01-08T08:30:23;4.40;;;4.00;;
2111;SDS011;1062;52.538;13.400;2023-01-08T08:32:50;6.10;;;4.37;;
2111;SDS011;1062;52.538;13.400;2023-01-08T08:35:16;7.23;;;4.43;;
2111;SDS011;1062;52.538;13.400;2023-01-08T08:37:42;5.53;;;4.70;;
2111;SDS011;1062;52.538;13.400;2023-01-08T08:40:07;5.53;;;4.30;;
2111;SDS011;1062;52.538;13.400;2023-01-08T08:42:33;4.93;;;4.53;;
2111;SDS011;1062;52.538;13.400;2023-01-08T08:44:59;4.77;;;3.60;;
2111;SDS011;1062;52.538;13.400;2023-01-08T08:47:25;5.60;;;4.40;;
2111;SDS011;1062;52.538;13.400;2023-01-08T08:49:50;5.23;;;4.73;;
2111;SDS011;1062;52.538;13.400;2023-01-08T08:52:16;4.77;;;4.37;;
2111;SDS011;1062;52.538;13.400;2023-01-08T08:54:42;8.83;;;5.27;;
2111;SDS011;1062;52.538;13.400;2023-01-08T08:57:07;4.73;;;4.33;;
2111;SDS011;1062;52.538;13.400;2023-01-08T08:59:34;5.13;;;4.50;;
2111;SDS011;1062;52.538;13.400;2023-01-08T09:02:00;7.10;;;5.07;;
2111;SDS011;1062;52.538;13.400;2023-01-08T09:04:28;5.00;;;4.20;;
2111;SDS011;1062;52.538;13.400;2023-01-08T09:06:57;4.57;;;4.17;;
2111;SDS011;1062;52.538;13.400;2023-01-08T09:09:24;4.93;;;3.97;;
2111;SDS011;1062;52.538;13.400;2023-01-08T09:11:51;5.80;;;3.37;;
2111;SDS011;1062;52.538;13.400;2023-01-08T09:14:17;7.37;;;4.67;;
2111;SDS011;1062;52.538;13.400;2023-01-08T09:16:43;4.53;;;4.10;;
2111;SDS011;1062;52.538;13.400;2023-01-08T09:19:09;6.80;;;4.40;;
2111;SDS011;1062;52.538;13.400;2023-01-08T09:21:35;5.00;;;4.47;;
2111;SDS011;1062;52.538;13.400;2023-01-08T09:24:01;5.83;;;4.50;;
2111;SDS011;1062;52.538;13.400;2023-01-08T09:26:27;4.83;;;4.43;;
2111;SDS011;1062;52.538;13.400;2023-01-08T09:28:54;5.00;;;4.17;;
2111;SDS011;1062;52.538;13.400;2023-01-08T09:31:21;8.00;;;4.37;;
2111;SDS011;1062;52.538;13.400;2023-01-08T09:33:47;4.97;;;4.47;;
2111;SDS011;1062;52.538;13.400;2023-01-08T09:36:13;6.67;;;4.17;;
2111;SDS011;1062;52.538;13.400;2023-01-08T09:38:38;4.77;;;4.07;;
2111;SDS011;1062;52.538;13.400;2023-01-08T09:41:05;4.90;;;4.40;;
2111;SDS011;1062;52.538;13.400;2023-01-08T09:43:35;6.40;;;4.73;;
2111;SDS011;1062;52.538;13.400;2023-01-08T09:46:05;5.23;;;4.03;;
2111;SDS011;1062;52.538;13.400;2023-01-08T09:48:33;4.30;;;3.83;;
2111;SDS011;1062;52.538;13.400;2023-01-08T09:51:01;5.50;;;3.90;;
2111;SDS011;1062;52.538;13.400;2023-01-08T09:53:28;4.27;;;3.83;;
2111;SDS011;1062;52.538;13.400;2023-01-08T09:56:00;3.60;;;3.30;;
2111;SDS011;1062;52.538;13.400;2023-01-08T09:58:34;5.63;;;4.60;;
2111;SDS011;1062;52.538;13.400;2023-01-08T10:01:02;4.80;;;4.23;;
2111;SDS011;1062;52.538;13.400;2023-01-08T10:03:30;7.00;;;4.97;;
2111;SDS011;1062;52.538;13.400;2023-01-08T10:06:07;6.00;;;4.87;;
2111;SDS011;1062;52.538;13.400;2023-01-08T10:08:37;7.07;;;4.00;;
2111;SDS011;1062;52.538;13.400;2023-01-08T10:11:04;7.30;;;4.47;;
2111;SDS011;1062;52.538;13.400;2023-01-08T10:13:31;6.53;;;4.63;;
2111;SDS011;1062;52.538;13.400;2023-01-08T10:15:58;5.37;;;4.87;;
2111;SDS011;1062;52.538;13.400;2023-01-08T10:18:24;5.57;;;4.80;;
2111;SDS011;1062;52.538;13.400;2023-01-08T10:20:52;5.40;;;4.33;;
2111;SDS011;1062;52.538;13.400;2023-01-08T10:23:18;4.53;;;4.20;;
2111;SDS011;1062;52.538;13.400;2023-01-08T10:25:47;6.13;;;4.10;;
2111;SDS011;1062;52.538;13.400;2023-01-08T10:28:20;6.20;;;4.60;;
2111;SDS011;1062;52.538;13.400;2023-01-08T10:31:06;7.83;;;4.43;;
2111;SDS011;1062;52.538;13.400;2023-01-08T10:33:53;6.50;;;4.33;;
2111;SDS011;1062;52.538;13.400;2023-01-08T10:36:21;6.27;;;4.80;;
2111;SDS011;1062;52.538;13.400;2023-01-08T10:38:51;5.53;;;3.77;;
2111;SDS011;1062;52.538;13.400;2023-01-08T10:41:24;4.70;;;3.93;;
2111;SDS011;1062;52.538;13.400;2023-01-08T10:43:54;7.10;;;4.70;;
2111;SDS011;1062;52.538;13.400;2023-01-08T10:46:22;6.60;;;5.43;;
2111;SDS011;1062;52.538;13.400;2023-01-08T10:48:50;5.20;;;4.07;;
2111;SDS011;1062;52.538;13.400;2023-01-08T10:51:26;5.20;;;3.77;;
2111;SDS011;1062;52.538;13.400;2023-01-08T10:53:54;5.10;;;4.07;;
2111;SDS011;1062;52.538;13.400;2023-01-08T10:56:29;5.73;;;4.30;;
2111;SDS011;1062;52.538;13.400;2023-01-08T10:59:04;6.17;;;5.47;;
2111;SDS011;1062;52.538;13.400;2023-01-08T11:01:29;5.40;;;4.33;;
2111;SDS011;1062;52.538;13.400;2023-01-08T11:03:58;7.23;;;5.23;;
2111;SDS011;1062;52.538;13.400;2023-01-08T11:06:26;5.10;;;4.60;;
2111;SDS011;1062;52.538;13.400;2023-01-08T11:08:56;5.03;;;4.03;;
2111;SDS011;1062;52.538;13.400;2023-01-08T11:11:35;7.97;;;4.77;;
2111;SDS011;1062;52.538;13.400;2023-01-08T11:14:03;5.23;;;4.70;;
2111;SDS011;1062;52.538;13.400;2023-01-08T11:16:36;5.00;;;4.00;;
2111;SDS011;1062;52.538;13.400;2023-01-08T11:19:04;5.97;;;5.33;;
2111;SDS011;1062;52.538;13.400;2023-01-08T11:21:54;6.83;;;4.67;;
2111;SDS011;1062;52.538;13.400;2023-01-08T11:24:25;8.00;;;5.07;;
2111;SDS011;1062;52.538;13.400;2023-01-08T11:26:58;4.60;;;4.20;;
2111;SDS011;1062;52.538;13.400;2023-01-08T11:29:48;4.40;;;3.93;;
2111;SDS011;1062;52.538;13.400;2023-01-08T11:32:36;5.30;;;4.80;;
2111;SDS011;1062;52.538;13.400;2023-01-08T11:35:11;5.53;;;4.93;;
2111;SDS011;1062;52.538;13.400;2023-01-08T11:37:39;5.50;;;4.30;;
2111;SDS011;1062;52.538;13.400;2023-01-08T11:40:11;6.00;;;4.27;;
2111;SDS011;1062;52.538;13.400;2023-01-08T11:42:52;5.30;;;4.40;;
2111;SDS011;1062;52.538;13.400;2023-01-08T11:53:42;5.17;;;4.67;;
2111;SDS011;1062;52.538;13.400;2023-01-08T11:56:19;5.57;;;4.87;;
2111;SDS011;1062;52.538;13.400;2023-01-08T12:01:44;5.87;;;5.33;;
2111;SDS011;1062;52.538;13.400;2023-01-08T12:07:18;6.60;;;6.00;;
2111;SDS011;1062;52.538;13.400;2023-01-08T12:10:00;5.10;;;4.03;;
2111;SDS011;1062;52.538;13.400;2023-01-08T12:21:02;5.93;;;5.37;;
2111;SDS011;1062;52.538;13.400;2023-01-08T12:32:05;7.17;;;5.87;;
2111;SDS011;1062;52.538;13.400;2023-01-08T12:40:12;5.00;;;4.40;;
2111;SDS011;1062;52.538;13.400;2023-01-08T12:42:42;5.43;;;4.93;;
2111;SDS011;1062;52.538;13.400;2023-01-08T12:47:52;6.17;;;5.57;;
2111;SDS011;1062;52.538;13.400;2023-01-08T12:50:34;5.10;;;4.03;;
2111;SDS011;1062;52.538;13.400;2023-01-08T12:53:08;5.60;;;4.90;;
2111;SDS011;1062;52.538;13.400;2023-01-08T12:58:31;4.70;;;4.30;;
2111;SDS011;1062;52.538;13.400;2023-01-08T13:01:04;5.17;;;3.90;;
2111;SDS011;1062;52.538;13.400;2023-01-08T13:03:38;6.87;;;5.20;;
2111;SDS011;1062;52.538;13.400;2023-01-08T13:06:08;5.10;;;4.50;;
2111;SDS011;1062;52.538;13.400;2023-01-08T13:08:39;5.00;;;4.50;;
2111;SDS011;1062;52.538;13.400;2023-01-08T13:11:10;5.20;;;4.70;;
2111;SDS011;1062;52.538;13.400;2023-01-08T13:13:37;4.73;;;4.27;;
2111;SDS011;1062;52.538;13.400;2023-01-08T13:16:15;5.37;;;4.13;;
2111;SDS011;1062;52.538;13.400;2023-01-08T13:18:53;5.60;;;3.87;;
2111;SDS011;1062;52.538;13.400;2023-01-08T13:21:57;8.17;;;5.13;;
2111;SDS011;1062;52.538;13.400;2023-01-08T13:24:24;4.93;;;4.43;;
2111;SDS011;1062;52.538;13.400;2023-01-08T13:27:10;6.30;;;4.70;;
2111;SDS011;1062;52.538;13.400;2023-01-08T13:29:43;6.80;;;5.10;;
2111;SDS011;1062;52.538;13.400;2023-01-08T13:32:53;5.60;;;4.77;;
2111;SDS011;1062;52.538;13.400;2023-01-08T13:37:43;7.80;;;6.07;;
2111;SDS011;1062;52.538;13.400;2023-01-08T13:43:00;5.10;;;4.60;;
2111;SDS011;1062;52.538;13.400;2023-01-08T13:45:26;5.87;;;5.27;;
2111;SDS011;1062;52.538;13.400;2023-01-08T13:47:53;7.07;;;6.40;;
2111;SDS011;1062;52.538;13.400;2023-01-08T13:50:20;6.33;;;5.57;;
2111;SDS011;1062;52.538;13.400;2023-01-08T13:53:03;7.57;;;6.57;;
2111;SDS011;1062;52.538;13.400;2023-01-08T13:55:36;8.57;;;6.10;;
2111;SDS011;1062;52.538;13.400;2023-01-08T13:58:16;5.77;;;5.13;;
2111;SDS011;1062;52.538;13.400;2023-01-08T14:00:45;7.90;;;5.87;;
2111;SDS011;1062;52.538;13.400;2023-01-08T14:03:33;8.07;;;6.07;;
2111;SDS011;1062;52.538;13.400;2023-01-08T14:06:12;5.30;;;4.80;;
2111;SDS011;1062;52.538;13.400;2023-01-08T14:08:59;7.10;;;5.37;;
2111;SDS011;1062;52.538;13.400;2023-01-08T14:14:14;7.50;;;6.17;;
2111;SDS011;1062;52.538;13.400;2023-01-08T14:16:41;9.43;;;6.83;;
2111;SDS011;1062;52.538;13.400;2023-01-08T14:19:10;9.30;;;6.33;;
2111;SDS011;1062;52.538;13.400;2023-01-08T14:21:44;6.80;;;5.10;;
2111;SDS011;1062;52.538;13.400;2023-01-08T14:24:14;10.77;;;7.53;;
2111;SDS011;1062;52.538;13.400;2023-01-08T14:26:41;7.47;;;5.87;;
2111;SDS011;1062;52.538;13.400;2023-01-08T14:29:14;9.90;;;6.40;;
2111;SDS011;1062;52.538;13.400;2023-01-08T14:31:46;10.27;;;5.97;;
2111;SDS011;1062;52.538;13.400;2023-01-08T14:34:17;11.50;;;8.00;;
2111;SDS011;1062;52.538;13.400;2023-01-08T14:36:44;8.53;;;6.60;;
2111;SDS011;1062;52.538;13.400;2023-01-08T14:39:11;7.53;;;6.00;;
2111;SDS011;1062;52.538;13.400;2023-01-08T14:41:45;7.87;;;5.57;;
2111;SDS011;1062;52.538;13.400;2023-01-08T14:44:37;5.30;;;4.80;;
2111;SDS011;1062;52.538;13.400;2023-01-08T14:47:04;7.97;;;6.20;;
2111;SDS011;1062;52.538;13.400;2023-01-08T14:49:37;7.50;;;5.63;;
2111;SDS011;1062;52.538;13.400;2023-01-08T14:52:08;7.30;;;6.50;;
2111;SDS011;1062;52.538;13.400;2023-01-08T14:54:36;7.10;;;6.07;;
2111;SDS011;1062;52.538;13.400;2023-01-08T14:57:02;8.90;;;6.13;;
2111;SDS011;1062;52.538;13.400;2023-01-08T14:59:29;6.10;;;5.30;;
2111;SDS011;1062;52.538;13.400;2023-01-08T15:01:58;9.30;;;5.73;;
2111;SDS011;1062;52.538;13.400;2023-01-08T15:04:26;19.23;;;11.83;;
2111;SDS011;1062;52.538;13.400;2023-01-08T15:07:03;6.23;;;4.87;;
2111;SDS011;1062;52.538;13.400;2023-01-08T15:09:40;6.63;;;5.77;;
2111;SDS011;1062;52.538;13.400;2023-01-08T15:12:06;7.20;;;5.47;;
2111;SDS011;1062;52.538;13.400;2023-01-08T15:14:50;7.10;;;5.83;;
2111;SDS011;1062;52.538;13.400;2023-01-08T15:17:19;8.57;;;6.07;;
2111;SDS011;1062;52.538;13.400;2023-01-08T15:19:56;8.83;;;6.10;;
2111;SDS011;1062;52.538;13.400;2023-01-08T15:22:24;7.63;;;6.73;;
2111;SDS011;1062;52.538;13.400;2023-01-08T15:25:33;14.37;;;6.60;;
2111;SDS011;1062;52.538;13.400;2023-01-08T15:27:47;9.50;;;6.87;;
2111;SDS011;1062;52.538;13.400;2023-01-08T15:30:22;7.33;;;6.30;;
2111;SDS011;1062;52.538;13.400;2023-01-08T15:32:50;10.60;;;7.20;;
2111;SDS011;1062;52.538;13.400;2023-01-08T15:35:16;9.27;;;6.67;;
2111;SDS011;1062;52.538;13.400;2023-01-08T15:37:42;8.73;;;7.07;;
2111;SDS011;1062;52.538;13.400;2023-01-08T15:40:09;10.37;;;6.90;;
2111;SDS011;1062;52.538;13.400;2023-01-08T15:42:36;7.97;;;6.60;;
2111;SDS011;1062;52.538;13.400;2023-01-08T15:45:21;10.50;;;8.17;;
2111;SDS011;1062;52.538;13.400;2023-01-08T15:47:52;9.23;;;6.90;;
2111;SDS011;1062;52.538;13.400;2023-01-08T15:50:17;8.00;;;6.77;;
2111;SDS011;1062;52.538;13.400;2023-01-08T15:52:44;11.40;;;7.27;;
2111;SDS011;1062;52.538;13.400;2023-01-08T15:55:17;10.50;;;8.40;;
2111;SDS011;1062;52.538;13.400;2023-01-08T15:57:44;10.80;;;7.93;;
2111;SDS011;1062;52.538;13.400;2023-01-08T16:00:11;11.30;;;7.40;;
2111;SDS011;1062;52.538;13.400;2023-01-08T16:02:41;9.20;;;7.70;;
2111;SDS011;1062;52.538;13.400;2023-01-08T16:05:11;11.70;;;8.50;;
2111;SDS011;1062;52.538;13.400;2023-01-08T16:07:38;8.17;;;7.00;;
2111;SDS011;1062;52.538;13.400;2023-01-08T16:10:04;13.80;;;8.67;;
2111;SDS011;1062;52.538;13.400;2023-01-08T16:12:30;9.70;;;8.17;;
2111;SDS011;1062;52.538;13.400;2023-01-08T16:14:55;9.93;;;6.83;;
2111;SDS011;1062;52.538;13.400;2023-01-08T16:17:21;12.20;;;7.47;;
2111;SDS011;1062;52.538;13.400;2023-01-08T16:19:46;11.27;;;8.10;;
2111;SDS011;1062;52.538;13.400;2023-01-08T16:22:12;10.00;;;7.10;;
2111;SDS011;1062;52.538;13.400;2023-01-08T16:24:38;8.23;;;7.13;;
2111;SDS011;1062;52.538;13.400;2023-01-08T16:27:03;8.03;;;7.10;;
2111;SDS011;1062;52.538;13.400;2023-01-08T16:29:30;9.40;;;6.83;;
2111;SDS011;1062;52.538;13.400;2023-01-08T16:31:56;9.83;;;6.90;;